Warning: Javascript must be enabled to use all the features on this page!


Page Loading - Please Wait...

Click to hideNews Bulletins

Peak Streamflow for the Nation

USGS 01509520 TIOUGHNIOGA RIVER AT LISLE NY

Broome County, New York
Hydrologic Unit Code 02050102
Latitude  42°20'58", Longitude  75°59'57" NAD83
Drainage area 453  square miles
Gage datum 956.06 feet above NAVD88
Output formats
Table
Graph
Tab-separated file
peakfq (watstore) format
Reselect output format
Water
Year
Date Gage
Height
(feet)
Stream-
flow
(cfs)
1988 1988-03-27 6.16 6,840
1989 1989-03-31 5.12 5,070
1990 1990-02-17 6.05 6,370
1991 1991-03-04 6.25 6,660
1992 1992-03-27 5.68 5,840
1993 1993-04-10 9.31 12,100
1994 1994-04-16 7.02 8,340
1995 1994-11-01 4.64 4,560
1996 1996-01-20   12,9002
1997 1996-12-02 8.19 10,700
1998 1998-01-08 8.18 10,600
1999 1999-01-25 9.851 8,1502
2000 2000-02-28 8.43 11,100
2001 2001-04-10 8.32 13,400
2002 2002-02-01 5.51 6,420
2003 2003-03-22 7.02 9,880
2004 2004-09-18 6.81 9,360
2005 2005-04-02 10.38 19,800
2006 2006-06-27 8.95 11,400
2007 2006-11-16 7.69 8,950
2008 2008-02-06 7.21 8,060
2009 2009-03-09 7.12 7,900
2010 2010-09-30 9.40 12,400
2011 2011-09-08 10.02 13,8009
2012 2012-01-27 4.88 4,280
2013 2013-08-09 9.82 13,300
2014 2014-03-30 6.94 7,570
2015 2015-04-08 7.26 8,150
2016 2016-02-16 5.93 5,870
2017 2017-07-14 8.54 10,600
2018 2018-09-18 8.34 10,200
2019 2019-02-08 5.29 4,870
2020 2019-10-31 7.98 9,500
2021 2020-12-25 9.48 12,600
?
  Peak Gage-Height Qualification Codes.
?
  Peak Streamflow Qualification Codes.